sensor_id;sensor_type;location;lat;lon;timestamp;temperature;humidity
25170;DHT22;13129;48.012;10.352;2023-03-23T04:31:43;7.20;99.90
25170;DHT22;13129;48.012;10.352;2023-03-23T04:34:16;7.30;99.90
25170;DHT22;13129;48.012;10.352;2023-03-23T04:36:43;7.30;99.90
25170;DHT22;13129;48.012;10.352;2023-03-23T04:39:09;7.30;99.90
25170;DHT22;13129;48.012;10.352;2023-03-23T04:41:39;7.30;99.90
25170;DHT22;13129;48.012;10.352;2023-03-23T04:44:06;7.30;99.90
25170;DHT22;13129;48.012;10.352;2023-03-23T04:46:32;7.20;99.90
25170;DHT22;13129;48.012;10.352;2023-03-23T04:48:58;7.20;99.90
25170;DHT22;13129;48.012;10.352;2023-03-23T04:51:25;7.20;99.90
25170;DHT22;13129;48.012;10.352;2023-03-23T04:53:52;7.20;99.90
25170;DHT22;13129;48.012;10.352;2023-03-23T04:56:18;7.30;99.90
25170;DHT22;13129;48.012;10.352;2023-03-23T04:58:44;7.30;99.90
25170;DHT22;13129;48.012;10.352;2023-03-23T05:01:11;7.40;99.90
25170;DHT22;13129;48.012;10.352;2023-03-23T05:03:40;7.50;99.90
25170;DHT22;13129;48.012;10.352;2023-03-23T05:06:07;7.70;99.90
25170;DHT22;13129;48.012;10.352;2023-03-23T05:08:32;7.80;99.90
25170;DHT22;13129;48.012;10.352;2023-03-23T05:11:00;7.90;99.90
25170;DHT22;13129;48.012;10.352;2023-03-23T05:13:27;8.00;99.90
25170;DHT22;13129;48.012;10.352;2023-03-23T05:15:53;8.00;99.90
25170;DHT22;13129;48.012;10.352;2023-03-23T05:18:19;8.20;99.90
25170;DHT22;13129;48.012;10.352;2023-03-23T05:20:46;8.30;99.90
25170;DHT22;13129;48.012;10.352;2023-03-23T05:23:12;8.50;99.90
25170;DHT22;13129;48.012;10.352;2023-03-23T05:25:38;8.70;99.90
25170;DHT22;13129;48.012;10.352;2023-03-23T05:28:09;8.60;99.90
25170;DHT22;13129;48.012;10.352;2023-03-23T05:30:36;8.60;99.90
25170;DHT22;13129;48.012;10.352;2023-03-23T05:33:03;8.50;99.90
25170;DHT22;13129;48.012;10.352;2023-03-23T05:35:30;8.50;99.90
25170;DHT22;13129;48.012;10.352;2023-03-23T05:37:56;8.60;99.90
25170;DHT22;13129;48.012;10.352;2023-03-23T05:40:22;8.70;99.90
25170;DHT22;13129;48.012;10.352;2023-03-23T05:42:51;8.80;99.90
25170;DHT22;13129;48.012;10.352;2023-03-23T05:45:17;9.00;99.90
25170;DHT22;13129;48.012;10.352;2023-03-23T05:47:43;9.10;99.90
25170;DHT22;13129;48.012;10.352;2023-03-23T05:50:09;9.20;99.90
25170;DHT22;13129;48.012;10.352;2023-03-23T05:52:36;9.40;99.90
25170;DHT22;13129;48.012;10.352;2023-03-23T05:55:03;9.50;99.90
25170;DHT22;13129;48.012;10.352;2023-03-23T05:57:29;9.70;99.90
25170;DHT22;13129;48.012;10.352;2023-03-23T05:59:55;9.80;99.90
25170;DHT22;13129;48.012;10.352;2023-03-23T06:02:23;9.90;99.90
25170;DHT22;13129;48.012;10.352;2023-03-23T06:04:50;10.00;99.90
25170;DHT22;13129;48.012;10.352;2023-03-23T06:07:25;10.10;99.90
25170;DHT22;13129;48.012;10.352;2023-03-23T06:09:51;10.20;99.90
25170;DHT22;13129;48.012;10.352;2023-03-23T06:12:18;10.30;99.90
25170;DHT22;13129;48.012;10.352;2023-03-23T06:14:48;10.40;99.90
25170;DHT22;13129;48.012;10.352;2023-03-23T06:17:17;10.50;99.90
25170;DHT22;13129;48.012;10.352;2023-03-23T06:19:43;10.70;99.90
25170;DHT22;13129;48.012;10.352;2023-03-23T06:22:10;10.80;99.90
25170;DHT22;13129;48.012;10.352;2023-03-23T06:24:36;10.90;99.90
25170;DHT22;13129;48.012;10.352;2023-03-23T06:27:02;11.00;99.90
25170;DHT22;13129;48.012;10.352;2023-03-23T06:29:28;11.10;99.90
25170;DHT22;13129;48.012;10.352;2023-03-23T06:31:58;11.20;99.90
25170;DHT22;13129;48.012;10.352;2023-03-23T06:34:25;11.40;99.90
25170;DHT22;13129;48.012;10.352;2023-03-23T06:36:51;11.50;99.90
25170;DHT22;13129;48.012;10.352;2023-03-23T06:39:17;11.50;99.90
25170;DHT22;13129;48.012;10.352;2023-03-23T06:41:42;11.60;99.90
25170;DHT22;13129;48.012;10.352;2023-03-23T06:44:08;11.70;99.90
25170;DHT22;13129;48.012;10.352;2023-03-23T06:46:39;11.70;99.90
25170;DHT22;13129;48.012;10.352;2023-03-23T06:49:05;11.80;99.90
25170;DHT22;13129;48.012;10.352;2023-03-23T06:51:31;11.90;99.90
25170;DHT22;13129;48.012;10.352;2023-03-23T06:53:57;12.00;99.90
25170;DHT22;13129;48.012;10.352;2023-03-23T06:56:23;12.10;99.90
25170;DHT22;13129;48.012;10.352;2023-03-23T06:58:49;12.30;99.90
25170;DHT22;13129;48.012;10.352;2023-03-23T07:01:18;12.50;99.90
25170;DHT22;13129;48.012;10.352;2023-03-23T07:03:44;12.70;99.90
25170;DHT22;13129;48.012;10.352;2023-03-23T07:06:11;12.90;99.90
25170;DHT22;13129;48.012;10.352;2023-03-23T07:08:37;13.10;99.90
25170;DHT22;13129;48.012;10.352;2023-03-23T07:11:03;13.30;99.90
25170;DHT22;13129;48.012;10.352;2023-03-23T07:13:29;13.40;99.70
25170;DHT22;13129;48.012;10.352;2023-03-23T07:15:55;13.50;99.30
25170;DHT22;13129;48.012;10.352;2023-03-23T07:18:21;13.60;98.80
25170;DHT22;13129;48.012;10.352;2023-03-23T07:20:51;13.60;98.50
25170;DHT22;13129;48.012;10.352;2023-03-23T07:23:18;13.60;98.40
25170;DHT22;13129;48.012;10.352;2023-03-23T07:25:44;13.70;98.20
25170;DHT22;13129;48.012;10.352;2023-03-23T07:28:11;13.70;97.90
25170;DHT22;13129;48.012;10.352;2023-03-23T07:30:37;13.70;97.80
25170;DHT22;13129;48.012;10.352;2023-03-23T07:33:08;13.60;97.80
25170;DHT22;13129;48.012;10.352;2023-03-23T07:35:34;13.70;97.80
25170;DHT22;13129;48.012;10.352;2023-03-23T07:38:01;13.70;97.70
25170;DHT22;13129;48.012;10.352;2023-03-23T07:40:28;13.80;97.60
25170;DHT22;13129;48.012;10.352;2023-03-23T07:42:56;13.90;97.40
25170;DHT22;13129;48.012;10.352;2023-03-23T07:45:23;14.10;96.60
25170;DHT22;13129;48.012;10.352;2023-03-23T07:47:49;14.20;96.30
25170;DHT22;13129;48.012;10.352;2023-03-23T07:50:16;14.40;96.00
25170;DHT22;13129;48.012;10.352;2023-03-23T07:52:42;14.60;95.60
25170;DHT22;13129;48.012;10.352;2023-03-23T07:55:10;14.80;95.00
25170;DHT22;13129;48.012;10.352;2023-03-23T07:57:46;15.10;94.30
25170;DHT22;13129;48.012;10.352;2023-03-23T08:00:15;15.70;93.80
25170;DHT22;13129;48.012;10.352;2023-03-23T08:02:44;16.10;93.00
25170;DHT22;13129;48.012;10.352;2023-03-23T08:05:10;16.20;92.40
25170;DHT22;13129;48.012;10.352;2023-03-23T08:07:35;16.30;92.00
25170;DHT22;13129;48.012;10.352;2023-03-23T08:10:01;16.20;91.80
25170;DHT22;13129;48.012;10.352;2023-03-23T08:12:27;16.20;91.60
25170;DHT22;13129;48.012;10.352;2023-03-23T08:14:53;16.20;91.50
25170;DHT22;13129;48.012;10.352;2023-03-23T08:17:20;16.00;91.40
25170;DHT22;13129;48.012;10.352;2023-03-23T08:19:46;15.80;91.30
25170;DHT22;13129;48.012;10.352;2023-03-23T08:22:11;15.70;91.30
25170;DHT22;13129;48.012;10.352;2023-03-23T08:24:38;15.70;91.50
25170;DHT22;13129;48.012;10.352;2023-03-23T08:27:04;16.00;91.60
25170;DHT22;13129;48.012;10.352;2023-03-23T08:29:30;16.60;90.90
25170;DHT22;13129;48.012;10.352;2023-03-23T08:31:57;17.60;89.70
25170;DHT22;13129;48.012;10.352;2023-03-23T08:34:22;18.30;86.30
25170;DHT22;13129;48.012;10.352;2023-03-23T08:36:48;18.80;84.70
25170;DHT22;13129;48.012;10.352;2023-03-23T08:39:17;19.10;83.30
25170;DHT22;13129;48.012;10.352;2023-03-23T08:41:43;19.50;81.00
25170;DHT22;13129;48.012;10.352;2023-03-23T08:44:10;19.60;78.60
25170;DHT22;13129;48.012;10.352;2023-03-23T08:46:36;19.30;78.60
25170;DHT22;13129;48.012;10.352;2023-03-23T08:49:01;19.00;79.10
25170;DHT22;13129;48.012;10.352;2023-03-23T08:51:27;18.60;79.90
25170;DHT22;13129;48.012;10.352;2023-03-23T08:53:53;18.30;79.40
25170;DHT22;13129;48.012;10.352;2023-03-23T08:56:19;17.90;79.90
25170;DHT22;13129;48.012;10.352;2023-03-23T08:58:45;17.80;80.60
25170;DHT22;13129;48.012;10.352;2023-03-23T09:01:11;17.80;80.90
25170;DHT22;13129;48.012;10.352;2023-03-23T09:03:37;17.80;80.50
25170;DHT22;13129;48.012;10.352;2023-03-23T09:06:05;18.30;80.40
25170;DHT22;13129;48.012;10.352;2023-03-23T09:08:31;19.10;78.50
25170;DHT22;13129;48.012;10.352;2023-03-23T09:11:04;20.50;75.90
25170;DHT22;13129;48.012;10.352;2023-03-23T09:13:30;22.60;73.00
25170;DHT22;13129;48.012;10.352;2023-03-23T09:15:56;24.00;67.30
25170;DHT22;13129;48.012;10.352;2023-03-23T09:18:23;24.00;62.70
25170;DHT22;13129;48.012;10.352;2023-03-23T09:20:53;23.40;62.40
25170;DHT22;13129;48.012;10.352;2023-03-23T09:23:19;22.50;62.80
25170;DHT22;13129;48.012;10.352;2023-03-23T09:25:45;21.90;64.50
25170;DHT22;13129;48.012;10.352;2023-03-23T09:28:11;21.40;65.90
25170;DHT22;13129;48.012;10.352;2023-03-23T09:30:38;21.20;66.40
25170;DHT22;13129;48.012;10.352;2023-03-23T09:33:04;21.10;67.10
25170;DHT22;13129;48.012;10.352;2023-03-23T09:35:32;21.20;67.50
25170;DHT22;13129;48.012;10.352;2023-03-23T09:38:00;21.50;66.10
25170;DHT22;13129;48.012;10.352;2023-03-23T09:43:05;21.60;64.60
25170;DHT22;13129;48.012;10.352;2023-03-23T09:48:38;21.70;65.90
25170;DHT22;13129;48.012;10.352;2023-03-23T09:53:40;23.20;63.10
25170;DHT22;13129;48.012;10.352;2023-03-23T09:56:13;24.00;61.40
25170;DHT22;13129;48.012;10.352;2023-03-23T10:01:45;25.30;57.80
25170;DHT22;13129;48.012;10.352;2023-03-23T10:06:47;25.10;55.70
25170;DHT22;13129;48.012;10.352;2023-03-23T10:09:16;24.50;56.90
25170;DHT22;13129;48.012;10.352;2023-03-23T10:11:54;24.10;57.70
25170;DHT22;13129;48.012;10.352;2023-03-23T10:14:45;23.80;58.10
25170;DHT22;13129;48.012;10.352;2023-03-23T10:17:37;24.50;58.80
25170;DHT22;13129;48.012;10.352;2023-03-23T10:20:19;26.20;55.00
25170;DHT22;13129;48.012;10.352;2023-03-23T10:25:55;25.10;53.90
25170;DHT22;13129;48.012;10.352;2023-03-23T10:31:03;23.00;56.10
25170;DHT22;13129;48.012;10.352;2023-03-23T10:33:36;22.30;57.30
25170;DHT22;13129;48.012;10.352;2023-03-23T10:36:10;22.00;58.30
25170;DHT22;13129;48.012;10.352;2023-03-23T10:39:00;21.70;58.70
25170;DHT22;13129;48.012;10.352;2023-03-23T10:41:28;21.80;59.10
25170;DHT22;13129;48.012;10.352;2023-03-23T10:43:54;21.70;59.40
25170;DHT22;13129;48.012;10.352;2023-03-23T10:49:18;21.10;59.20
25170;DHT22;13129;48.012;10.352;2023-03-23T10:51:53;21.10;59.70
25170;DHT22;13129;48.012;10.352;2023-03-23T10:54:27;21.10;60.30
25170;DHT22;13129;48.012;10.352;2023-03-23T10:56:53;21.20;60.70
25170;DHT22;13129;48.012;10.352;2023-03-23T10:59:30;21.70;60.90
25170;DHT22;13129;48.012;10.352;2023-03-23T11:02:00;23.60;58.70
25170;DHT22;13129;48.012;10.352;2023-03-23T11:04:29;24.90;56.40
25170;DHT22;13129;48.012;10.352;2023-03-23T11:07:00;25.40;55.90
25170;DHT22;13129;48.012;10.352;2023-03-23T11:09:51;25.50;54.70
25170;DHT22;13129;48.012;10.352;2023-03-23T11:12:19;25.50;53.80
25170;DHT22;13129;48.012;10.352;2023-03-23T11:14:45;25.40;53.10
25170;DHT22;13129;48.012;10.352;2023-03-23T11:17:23;25.10;53.10
25170;DHT22;13129;48.012;10.352;2023-03-23T11:19:50;24.60;53.10
25170;DHT22;13129;48.012;10.352;2023-03-23T11:22:32;24.20;53.80
25170;DHT22;13129;48.012;10.352;2023-03-23T11:25:04;23.80;55.00
25170;DHT22;13129;48.012;10.352;2023-03-23T11:27:30;23.50;55.30
25170;DHT22;13129;48.012;10.352;2023-03-23T11:30:00;23.30;55.70
25170;DHT22;13129;48.012;10.352;2023-03-23T11:32:29;22.80;56.30
25170;DHT22;13129;48.012;10.352;2023-03-23T11:34:58;22.10;57.60
25170;DHT22;13129;48.012;10.352;2023-03-23T11:37:54;21.60;58.80
25170;DHT22;13129;48.012;10.352;2023-03-23T11:40:25;21.20;59.70
25170;DHT22;13129;48.012;10.352;2023-03-23T11:43:01;21.00;60.50
25170;DHT22;13129;48.012;10.352;2023-03-23T11:48:31;20.20;61.90
25170;DHT22;13129;48.012;10.352;2023-03-23T11:51:21;19.70;62.50
25170;DHT22;13129;48.012;10.352;2023-03-23T11:54:00;19.10;63.60
25170;DHT22;13129;48.012;10.352;2023-03-23T11:58:57;18.40;66.40
25170;DHT22;13129;48.012;10.352;2023-03-23T12:17:26;18.30;66.70
25170;DHT22;13129;48.012;10.352;2023-03-23T12:20:20;18.40;66.90
25170;DHT22;13129;48.012;10.352;2023-03-23T12:28:44;18.60;66.60
25170;DHT22;13129;48.012;10.352;2023-03-23T12:31:15;18.70;67.40
25170;DHT22;13129;48.012;10.352;2023-03-23T12:36:24;19.10;66.30
25170;DHT22;13129;48.012;10.352;2023-03-23T12:44:48;19.20;67.30
25170;DHT22;13129;48.012;10.352;2023-03-23T12:50:07;19.30;67.00
25170;DHT22;13129;48.012;10.352;2023-03-23T12:55:44;18.90;67.40
25170;DHT22;13129;48.012;10.352;2023-03-23T12:58:30;18.70;67.40
25170;DHT22;13129;48.012;10.352;2023-03-23T13:01:02;18.60;68.80
25170;DHT22;13129;48.012;10.352;2023-03-23T13:03:41;18.70;69.40
25170;DHT22;13129;48.012;10.352;2023-03-23T13:06:27;18.90;69.30
25170;DHT22;13129;48.012;10.352;2023-03-23T13:11:55;19.40;67.30
25170;DHT22;13129;48.012;10.352;2023-03-23T13:14:43;19.50;67.10
25170;DHT22;13129;48.012;10.352;2023-03-23T13:20:30;19.50;66.70
25170;DHT22;13129;48.012;10.352;2023-03-23T13:23:15;19.50;66.50
25170;DHT22;13129;48.012;10.352;2023-03-23T13:28:17;19.40;66.30
25170;DHT22;13129;48.012;10.352;2023-03-23T13:31:04;19.20;67.00
25170;DHT22;13129;48.012;10.352;2023-03-23T13:33:36;19.20;67.60
25170;DHT22;13129;48.012;10.352;2023-03-23T13:36:07;19.00;67.60
25170;DHT22;13129;48.012;10.352;2023-03-23T13:38:34;18.80;67.80
25170;DHT22;13129;48.012;10.352;2023-03-23T13:41:10;18.80;68.20
25170;DHT22;13129;48.012;10.352;2023-03-23T13:43:37;18.80;68.60
25170;DHT22;13129;48.012;10.352;2023-03-23T13:56:52;18.40;68.30
25170;DHT22;13129;48.012;10.352;2023-03-23T14:04:42;17.60;71.10
25170;DHT22;13129;48.012;10.352;2023-03-23T14:07:12;17.30;72.00
25170;DHT22;13129;48.012;10.352;2023-03-23T14:09:42;17.10;72.30
25170;DHT22;13129;48.012;10.352;2023-03-23T14:12:28;17.00;73.10
25170;DHT22;13129;48.012;10.352;2023-03-23T14:15:01;16.90;74.20
25170;DHT22;13129;48.012;10.352;2023-03-23T14:17:33;16.80;73.90
25170;DHT22;13129;48.012;10.352;2023-03-23T14:20:00;16.80;74.30
25170;DHT22;13129;48.012;10.352;2023-03-23T14:22:31;16.80;74.70
25170;DHT22;13129;48.012;10.352;2023-03-23T14:25:18;16.70;74.40
25170;DHT22;13129;48.012;10.352;2023-03-23T14:27:46;16.60;74.70
25170;DHT22;13129;48.012;10.352;2023-03-23T14:30:19;16.60;75.20
25170;DHT22;13129;48.012;10.352;2023-03-23T14:32:45;16.50;75.30
25170;DHT22;13129;48.012;10.352;2023-03-23T14:35:32;16.50;75.10
25170;DHT22;13129;48.012;10.352;2023-03-23T14:37:59;16.40;75.40
25170;DHT22;13129;48.012;10.352;2023-03-23T14:40:27;16.40;75.30
25170;DHT22;13129;48.012;10.352;2023-03-23T14:42:53;16.30;75.80
25170;DHT22;13129;48.012;10.352;2023-03-23T14:45:21;16.30;76.00
25170;DHT22;13129;48.012;10.352;2023-03-23T14:48:00;16.30;76.70
25170;DHT22;13129;48.012;10.352;2023-03-23T14:50:58;16.30;76.80
25170;DHT22;13129;48.012;10.352;2023-03-23T14:53:30;16.30;76.30
25170;DHT22;13129;48.012;10.352;2023-03-23T14:56:00;16.30;76.10
25170;DHT22;13129;48.012;10.352;2023-03-23T14:58:28;16.30;76.10
25170;DHT22;13129;48.012;10.352;2023-03-23T15:01:02;16.20;75.80
25170;DHT22;13129;48.012;10.352;2023-03-23T15:03:35;16.30;75.80
25170;DHT22;13129;48.012;10.352;2023-03-23T15:06:07;16.20;75.90
25170;DHT22;13129;48.012;10.352;2023-03-23T15:08:35;16.10;75.60
25170;DHT22;13129;48.012;10.352;2023-03-23T15:13:50;16.00;76.10
25170;DHT22;13129;48.012;10.352;2023-03-23T15:16:22;15.90;76.70
25170;DHT22;13129;48.012;10.352;2023-03-23T15:19:04;15.80;77.40
25170;DHT22;13129;48.012;10.352;2023-03-23T15:21:35;15.70;78.20
25170;DHT22;13129;48.012;10.352;2023-03-23T15:24:01;15.60;79.50
25170;DHT22;13129;48.012;10.352;2023-03-23T15:26:33;15.50;80.60
25170;DHT22;13129;48.012;10.352;2023-03-23T15:31:54;15.40;80.40
25170;DHT22;13129;48.012;10.352;2023-03-23T15:34:34;15.30;80.80
25170;DHT22;13129;48.012;10.352;2023-03-23T15:37:16;15.20;81.10
25170;DHT22;13129;48.012;10.352;2023-03-23T15:39:44;15.20;81.80
25170;DHT22;13129;48.012;10.352;2023-03-23T15:52:52;14.70;83.60
25170;DHT22;13129;48.012;10.352;2023-03-23T15:55:29;14.60;85.20
25170;DHT22;13129;48.012;10.352;2023-03-23T15:58:00;14.50;86.10
25170;DHT22;13129;48.012;10.352;2023-03-23T16:00:27;14.50;86.80
25170;DHT22;13129;48.012;10.352;2023-03-23T16:03:00;14.40;87.30
25170;DHT22;13129;48.012;10.352;2023-03-23T16:05:27;14.40;88.10
25170;DHT22;13129;48.012;10.352;2023-03-23T16:07:52;14.40;88.60
25170;DHT22;13129;48.012;10.352;2023-03-23T16:10:21;14.40;88.70
25170;DHT22;13129;48.012;10.352;2023-03-23T16:12:48;14.40;89.20
25170;DHT22;13129;48.012;10.352;2023-03-23T16:15:14;14.40;89.30
25170;DHT22;13129;48.012;10.352;2023-03-23T16:17:40;14.40;89.30
25170;DHT22;13129;48.012;10.352;2023-03-23T16:20:21;14.40;89.60
25170;DHT22;13129;48.012;10.352;2023-03-23T16:22:47;14.30;89.60
25170;DHT22;13129;48.012;10.352;2023-03-23T16:25:14;14.30;89.70
25170;DHT22;13129;48.012;10.352;2023-03-23T16:27:40;14.30;90.00
25170;DHT22;13129;48.012;10.352;2023-03-23T16:30:26;14.30;89.80
25170;DHT22;13129;48.012;10.352;2023-03-23T16:32:53;14.20;89.90
25170;DHT22;13129;48.012;10.352;2023-03-23T16:35:19;14.20;89.70
25170;DHT22;13129;48.012;10.352;2023-03-23T16:37:51;14.10;89.40
25170;DHT22;13129;48.012;10.352;2023-03-23T16:40:18;14.10;89.70
25170;DHT22;13129;48.012;10.352;2023-03-23T16:42:44;13.90;89.60
25170;DHT22;13129;48.012;10.352;2023-03-23T16:45:11;13.90;89.90
25170;DHT22;13129;48.012;10.352;2023-03-23T16:47:37;13.90;89.80
25170;DHT22;13129;48.012;10.352;2023-03-23T16:50:05;13.80;89.80
25170;DHT22;13129;48.012;10.352;2023-03-23T16:52:32;13.80;89.90
25170;DHT22;13129;48.012;10.352;2023-03-23T16:54:58;13.70;90.00
25170;DHT22;13129;48.012;10.352;2023-03-23T16:57:24;13.70;90.10
25170;DHT22;13129;48.012;10.352;2023-03-23T16:59:50;13.70;90.10
25170;DHT22;13129;48.012;10.352;2023-03-23T17:02:16;13.60;90.20
25170;DHT22;13129;48.012;10.352;2023-03-23T17:04:43;13.60;90.20
25170;DHT22;13129;48.012;10.352;2023-03-23T17:07:10;13.60;90.30
25170;DHT22;13129;48.012;10.352;2023-03-23T17:09:36;13.50;90.30
25170;DHT22;13129;48.012;10.352;2023-03-23T17:12:02;13.50;90.40
25170;DHT22;13129;48.012;10.352;2023-03-23T17:14:28;13.40;90.50
25170;DHT22;13129;48.012;10.352;2023-03-23T17:16:54;13.40;90.60
25170;DHT22;13129;48.012;10.352;2023-03-23T17:19:21;13.30;90.70
25170;DHT22;13129;48.012;10.352;2023-03-23T17:21:47;13.30;90.80
25170;DHT22;13129;48.012;10.352;2023-03-23T17:24:12;13.20;90.80
25170;DHT22;13129;48.012;10.352;2023-03-23T17:26:38;13.20;90.90
25170;DHT22;13129;48.012;10.352;2023-03-23T17:29:04;13.20;91.00
25170;DHT22;13129;48.012;10.352;2023-03-23T17:31:30;13.20;91.00
25170;DHT22;13129;48.012;10.352;2023-03-23T17:33:55;13.10;91.00
25170;DHT22;13129;48.012;10.352;2023-03-23T17:36:22;13.10;91.10
25170;DHT22;13129;48.012;10.352;2023-03-23T17:38:49;13.00;91.10
25170;DHT22;13129;48.012;10.352;2023-03-23T17:41:14;13.00;91.30
25170;DHT22;13129;48.012;10.352;2023-03-23T17:43:40;13.00;91.30
25170;DHT22;13129;48.012;10.352;2023-03-23T17:46:08;12.90;91.40
25170;DHT22;13129;48.012;10.352;2023-03-23T17:48:34;12.90;91.50
25170;DHT22;13129;48.012;10.352;2023-03-23T17:51:00;12.80;91.60
25170;DHT22;13129;48.012;10.352;2023-03-23T17:53:30;12.80;91.80
25170;DHT22;13129;48.012;10.352;2023-03-23T17:55:57;12.80;91.90
25170;DHT22;13129;48.012;10.352;2023-03-23T17:58:23;12.80;91.90
25170;DHT22;13129;48.012;10.352;2023-03-23T18:00:53;12.70;92.00
25170;DHT22;13129;48.012;10.352;2023-03-23T18:03:19;12.70;92.00
25170;DHT22;13129;48.012;10.352;2023-03-23T18:05:45;12.70;92.10
25170;DHT22;13129;48.012;10.352;2023-03-23T18:08:11;12.70;92.10
25170;DHT22;13129;48.012;10.352;2023-03-23T18:10:39;12.70;92.20
25170;DHT22;13129;48.012;10.352;2023-03-23T18:13:06;12.60;92.20
25170;DHT22;13129;48.012;10.352;2023-03-23T18:15:33;12.60;92.20
25170;DHT22;13129;48.012;10.352;2023-03-23T18:18:00;12.60;92.20
25170;DHT22;13129;48.012;10.352;2023-03-23T18:20:28;12.60;92.20
25170;DHT22;13129;48.012;10.352;2023-03-23T18:22:53;12.60;92.30
25170;DHT22;13129;48.012;10.352;2023-03-23T18:25:20;12.60;92.60
25170;DHT22;13129;48.012;10.352;2023-03-23T18:27:45;12.60;92.30
25170;DHT22;13129;48.012;10.352;2023-03-23T18:30:11;12.60;92.40
25170;DHT22;13129;48.012;10.352;2023-03-23T18:32:38;12.60;92.50
25170;DHT22;13129;48.012;10.352;2023-03-23T18:35:05;12.60;92.50
25170;DHT22;13129;48.012;10.352;2023-03-23T18:37:32;12.60;92.50
25170;DHT22;13129;48.012;10.352;2023-03-23T18:39:58;12.60;92.60
25170;DHT22;13129;48.012;10.352;2023-03-23T18:42:24;12.60;92.70
25170;DHT22;13129;48.012;10.352;2023-03-23T18:44:53;12.60;92.70
25170;DHT22;13129;48.012;10.352;2023-03-23T18:47:18;12.60;92.70
25170;DHT22;13129;48.012;10.352;2023-03-23T18:49:44;12.50;92.70
25170;DHT22;13129;48.012;10.352;2023-03-23T18:52:11;12.50;92.70
25170;DHT22;13129;48.012;10.352;2023-03-23T18:54:37;12.50;92.70
25170;DHT22;13129;48.012;10.352;2023-03-23T18:57:04;12.50;92.80
25170;DHT22;13129;48.012;10.352;2023-03-23T18:59:30;12.50;92.80
25170;DHT22;13129;48.012;10.352;2023-03-23T19:01:58;12.50;92.80
25170;DHT22;13129;48.012;10.352;2023-03-23T19:04:24;12.50;92.90
25170;DHT22;13129;48.012;10.352;2023-03-23T19:06:49;12.40;92.90
25170;DHT22;13129;48.012;10.352;2023-03-23T19:09:16;12.40;93.00
25170;DHT22;13129;48.012;10.352;2023-03-23T19:11:44;12.40;93.10
25170;DHT22;13129;48.012;10.352;2023-03-23T19:14:10;12.40;93.20
25170;DHT22;13129;48.012;10.352;2023-03-23T19:16:36;12.40;93.20
25170;DHT22;13129;48.012;10.352;2023-03-23T19:19:03;12.40;93.30
25170;DHT22;13129;48.012;10.352;2023-03-23T19:21:29;12.40;93.30
25170;DHT22;13129;48.012;10.352;2023-03-23T19:23:55;12.40;93.20
25170;DHT22;13129;48.012;10.352;2023-03-23T19:26:30;12.40;93.20
25170;DHT22;13129;48.012;10.352;2023-03-23T19:28:56;12.40;93.30
25170;DHT22;13129;48.012;10.352;2023-03-23T19:31:22;12.40;93.30
25170;DHT22;13129;48.012;10.352;2023-03-23T19:33:50;12.30;93.30
25170;DHT22;13129;48.012;10.352;2023-03-23T19:36:17;12.30;93.30
25170;DHT22;13129;48.012;10.352;2023-03-23T19:38:44;12.30;93.20
25170;DHT22;13129;48.012;10.352;2023-03-23T19:41:10;12.30;93.20
25170;DHT22;13129;48.012;10.352;2023-03-23T19:43:36;12.20;93.50
25170;DHT22;13129;48.012;10.352;2023-03-23T19:46:02;12.10;93.90
25170;DHT22;13129;48.012;10.352;2023-03-23T19:48:28;12.00;94.30
25170;DHT22;13129;48.012;10.352;2023-03-23T19:50:55;11.90;94.50
25170;DHT22;13129;48.012;10.352;2023-03-23T19:53:22;11.80;94.70
25170;DHT22;13129;48.012;10.352;2023-03-23T19:55:48;11.80;94.80
25170;DHT22;13129;48.012;10.352;2023-03-23T19:58:14;11.80;95.00
25170;DHT22;13129;48.012;10.352;2023-03-23T20:00:40;11.80;95.10
25170;DHT22;13129;48.012;10.352;2023-03-23T20:03:07;11.70;95.20
25170;DHT22;13129;48.012;10.352;2023-03-23T20:05:33;11.60;95.50
25170;DHT22;13129;48.012;10.352;2023-03-23T20:07:59;11.60;95.70
25170;DHT22;13129;48.012;10.352;2023-03-23T20:10:25;11.40;95.90
25170;DHT22;13129;48.012;10.352;2023-03-23T20:12:51;11.40;96.30
25170;DHT22;13129;48.012;10.352;2023-03-23T20:15:16;11.30;96.40
25170;DHT22;13129;48.012;10.352;2023-03-23T20:17:42;11.30;96.60
25170;DHT22;13129;48.012;10.352;2023-03-23T20:20:08;11.20;96.80
25170;DHT22;13129;48.012;10.352;2023-03-23T20:22:35;11.20;97.10
25170;DHT22;13129;48.012;10.352;2023-03-23T20:25:04;11.20;97.20
25170;DHT22;13129;48.012;10.352;2023-03-23T20:27:34;11.30;97.20
25170;DHT22;13129;48.012;10.352;2023-03-23T20:30:00;11.20;97.10
25170;DHT22;13129;48.012;10.352;2023-03-23T20:32:29;11.30;97.20
25170;DHT22;13129;48.012;10.352;2023-03-23T20:34:59;11.30;97.10
25170;DHT22;13129;48.012;10.352;2023-03-23T20:37:25;11.30;97.20
25170;DHT22;13129;48.012;10.352;2023-03-23T20:39:51;11.20;97.20
25170;DHT22;13129;48.012;10.352;2023-03-23T20:42:17;11.20;97.40
25170;DHT22;13129;48.012;10.352;2023-03-23T20:44:43;11.20;97.60
25170;DHT22;13129;48.012;10.352;2023-03-23T20:47:09;11.10;97.70
25170;DHT22;13129;48.012;10.352;2023-03-23T20:49:35;11.10;97.90
25170;DHT22;13129;48.012;10.352;2023-03-23T20:52:04;11.10;98.10
25170;DHT22;13129;48.012;10.352;2023-03-23T20:54:30;11.10;98.20
25170;DHT22;13129;48.012;10.352;2023-03-23T20:56:56;11.00;98.20
25170;DHT22;13129;48.012;10.352;2023-03-23T20:59:25;10.90;98.30
25170;DHT22;13129;48.012;10.352;2023-03-23T21:01:51;10.90;98.70
25170;DHT22;13129;48.012;10.352;2023-03-23T21:04:19;10.90;98.90
25170;DHT22;13129;48.012;10.352;2023-03-23T21:06:46;10.80;99.00
25170;DHT22;13129;48.012;10.352;2023-03-23T21:09:14;10.80;99.20
25170;DHT22;13129;48.012;10.352;2023-03-23T21:11:40;10.80;99.30
25170;DHT22;13129;48.012;10.352;2023-03-23T21:14:06;10.70;99.50
25170;DHT22;13129;48.012;10.352;2023-03-23T21:16:32;10.70;99.70
25170;DHT22;13129;48.012;10.352;2023-03-23T21:18:58;10.70;99.80
25170;DHT22;13129;48.012;10.352;2023-03-23T21:21:24;10.70;99.80
25170;DHT22;13129;48.012;10.352;2023-03-23T21:23:52;10.70;99.80
25170;DHT22;13129;48.012;10.352;2023-03-23T21:26:21;10.70;99.90
25170;DHT22;13129;48.012;10.352;2023-03-23T21:28:47;10.70;99.90
25170;DHT22;13129;48.012;10.352;2023-03-23T21:31:15;10.60;99.90
25170;DHT22;13129;48.012;10.352;2023-03-23T21:33:42;10.60;99.90
25170;DHT22;13129;48.012;10.352;2023-03-23T21:36:08;10.70;99.90
25170;DHT22;13129;48.012;10.352;2023-03-23T21:38:34;10.60;99.90
25170;DHT22;13129;48.012;10.352;2023-03-23T21:41:11;10.60;99.90
25170;DHT22;13129;48.012;10.352;2023-03-23T21:43:37;10.70;99.90